createdAt,value
2022-12-31T00:00:08.866Z,11.79
2022-12-31T00:02:36.301Z,11.79
2022-12-31T00:05:04.531Z,11.81
2022-12-31T00:09:57.729Z,11.84
2022-12-31T00:12:25.461Z,11.84
2022-12-31T00:14:52.097Z,11.84
2022-12-31T00:17:18.839Z,11.86
2022-12-31T00:19:45.469Z,11.92
2022-12-31T00:22:12.115Z,11.95
2022-12-31T00:24:38.758Z,11.95
2022-12-31T00:27:05.384Z,12.00
2022-12-31T00:29:32.006Z,12.03
2022-12-31T00:31:58.594Z,12.06
2022-12-31T00:34:25.238Z,12.07
2022-12-31T00:36:52.766Z,12.08
2022-12-31T00:39:19.391Z,12.10
2022-12-31T00:41:46.109Z,12.14
2022-12-31T00:44:12.982Z,12.19
2022-12-31T00:49:05.467Z,12.29
2022-12-31T00:51:32.240Z,12.34
2022-12-31T00:53:59.185Z,12.38
2022-12-31T00:56:29.537Z,12.41
2022-12-31T00:58:57.203Z,12.44
2022-12-31T01:01:29.534Z,12.46
2022-12-31T01:04:00.954Z,12.46
2022-12-31T01:06:27.678Z,12.49
2022-12-31T01:08:55.778Z,12.51
2022-12-31T01:11:24.062Z,12.64
2022-12-31T01:13:50.703Z,12.66
2022-12-31T01:16:19.746Z,12.70
2022-12-31T01:18:46.498Z,12.69
2022-12-31T01:21:13.957Z,12.72
2022-12-31T01:23:41.193Z,12.77
2022-12-31T01:26:10.328Z,12.86
2022-12-31T01:28:36.956Z,12.88
2022-12-31T01:31:06.138Z,12.89
2022-12-31T01:33:32.907Z,12.93
2022-12-31T01:36:05.654Z,12.98
2022-12-31T01:38:33.777Z,13.00
2022-12-31T01:41:00.749Z,13.04
2022-12-31T01:43:48.898Z,13.05
2022-12-31T01:46:25.226Z,13.10
2022-12-31T01:48:54.548Z,13.12
2022-12-31T01:51:21.977Z,13.15
2022-12-31T01:53:50.413Z,13.13
2022-12-31T01:56:19.762Z,13.13
2022-12-31T01:58:50.960Z,13.13
2022-12-31T02:01:31.048Z,13.20
2022-12-31T02:03:58.897Z,13.23
2022-12-31T02:06:54.100Z,13.24
2022-12-31T02:09:21.149Z,13.24
2022-12-31T02:11:48.047Z,13.25
2022-12-31T02:14:26.723Z,13.27
2022-12-31T02:17:26.580Z,13.27
2022-12-31T02:20:25.420Z,13.26
2022-12-31T02:23:02.022Z,13.28
2022-12-31T02:25:59.975Z,13.27
2022-12-31T02:28:44.685Z,13.30
2022-12-31T02:31:47.322Z,13.28
2022-12-31T02:34:27.741Z,13.28
2022-12-31T02:36:58.018Z,13.31
2022-12-31T02:39:24.796Z,13.32
2022-12-31T02:41:51.893Z,13.35
2022-12-31T02:44:27.016Z,13.36
2022-12-31T02:46:59.347Z,13.37
2022-12-31T02:49:41.536Z,13.36
2022-12-31T02:52:18.031Z,13.38
2022-12-31T02:54:52.853Z,13.42
2022-12-31T02:57:31.637Z,13.45
2022-12-31T03:00:22.250Z,13.44
2022-12-31T03:02:51.742Z,13.29
2022-12-31T03:05:22.900Z,13.44
2022-12-31T03:07:49.514Z,13.43
2022-12-31T03:10:17.122Z,13.44
2022-12-31T03:12:47.549Z,13.46
2022-12-31T03:15:21.958Z,13.47
2022-12-31T03:18:13.842Z,13.47
2022-12-31T03:21:09.354Z,13.53
2022-12-31T03:23:39.835Z,13.53
2022-12-31T03:26:11.568Z,13.55
2022-12-31T03:28:40.914Z,13.56
2022-12-31T03:31:08.478Z,13.57
2022-12-31T03:33:37.667Z,13.57
2022-12-31T03:36:06.759Z,13.61
2022-12-31T03:38:33.607Z,13.53
2022-12-31T03:41:00.220Z,13.64
2022-12-31T03:43:26.831Z,13.65
2022-12-31T03:45:54.780Z,13.67
2022-12-31T03:48:24.519Z,13.66
2022-12-31T03:50:51.532Z,13.66
2022-12-31T03:53:18.409Z,13.63
2022-12-31T03:55:45.068Z,13.66
2022-12-31T03:58:11.783Z,13.69
2022-12-31T04:00:38.549Z,13.71
2022-12-31T04:03:06.248Z,13.64
2022-12-31T04:05:33.781Z,13.78
2022-12-31T04:08:00.598Z,13.82
2022-12-31T04:10:27.205Z,13.87
2022-12-31T04:12:53.814Z,13.92
2022-12-31T04:15:21.580Z,13.96
2022-12-31T04:17:48.899Z,14.00
2022-12-31T04:20:16.233Z,13.99
2022-12-31T04:22:42.886Z,14.01
2022-12-31T04:25:11.708Z,14.01
2022-12-31T04:27:43.771Z,14.03
2022-12-31T04:30:12.365Z,14.05
2022-12-31T04:32:39.382Z,14.02
2022-12-31T04:35:06.660Z,14.05
2022-12-31T04:37:33.347Z,14.03
2022-12-31T04:40:05.505Z,14.10
2022-12-31T04:42:33.239Z,14.08
2022-12-31T04:44:59.874Z,14.08
2022-12-31T04:47:26.546Z,14.06
2022-12-31T04:49:53.200Z,14.09
2022-12-31T04:52:19.839Z,14.11
2022-12-31T04:54:46.495Z,14.13
2022-12-31T04:57:13.130Z,14.14
2022-12-31T04:59:39.880Z,14.15
2022-12-31T05:02:06.735Z,14.16
2022-12-31T05:04:33.585Z,14.18
2022-12-31T05:07:00.254Z,14.19
2022-12-31T05:09:28.410Z,14.21
2022-12-31T05:11:55.075Z,14.25
2022-12-31T05:14:21.828Z,14.29
2022-12-31T05:16:48.476Z,14.30
2022-12-31T05:19:15.295Z,14.34
2022-12-31T05:21:41.930Z,14.36
2022-12-31T05:24:08.802Z,14.36
2022-12-31T05:26:35.595Z,14.35
2022-12-31T05:29:02.271Z,14.39
2022-12-31T05:31:28.885Z,14.40
2022-12-31T05:33:55.536Z,14.41
2022-12-31T05:36:22.159Z,14.40
2022-12-31T05:38:48.789Z,14.42
2022-12-31T05:41:15.418Z,14.37
2022-12-31T05:43:42.038Z,14.39
2022-12-31T05:46:08.974Z,14.38
2022-12-31T05:48:35.713Z,14.36
2022-12-31T05:51:02.402Z,14.36
2022-12-31T05:53:29.126Z,14.36
2022-12-31T05:55:55.742Z,14.30
2022-12-31T05:58:22.362Z,14.28
2022-12-31T06:00:48.974Z,14.29
2022-12-31T06:03:15.676Z,14.27
2022-12-31T06:05:43.304Z,14.26
2022-12-31T06:08:11.527Z,14.22
2022-12-31T06:10:38.788Z,14.24
2022-12-31T06:13:05.425Z,14.24
2022-12-31T06:15:32.302Z,14.23
2022-12-31T06:21:34.669Z,14.19
2022-12-31T06:24:01.303Z,14.14
2022-12-31T06:26:28.193Z,14.15
2022-12-31T06:28:54.855Z,14.10
2022-12-31T06:31:21.584Z,14.14
2022-12-31T06:33:48.224Z,14.13
2022-12-31T06:36:16.299Z,14.13
2022-12-31T06:38:44.193Z,14.11
2022-12-31T06:41:13.509Z,14.11
2022-12-31T06:43:41.131Z,14.09
2022-12-31T06:46:10.804Z,14.10
2022-12-31T06:48:38.119Z,14.09
2022-12-31T06:51:11.866Z,14.08
2022-12-31T06:53:43.929Z,14.08
2022-12-31T06:56:15.840Z,14.04
2022-12-31T06:58:43.051Z,14.01
2022-12-31T07:01:49.429Z,14.01
2022-12-31T07:04:45.626Z,13.99
2022-12-31T07:07:30.478Z,13.99
2022-12-31T07:10:17.759Z,13.99
2022-12-31T07:12:54.849Z,14.00
2022-12-31T07:15:50.254Z,13.98
2022-12-31T07:18:45.688Z,13.95
2022-12-31T07:21:18.675Z,14.01
2022-12-31T07:23:48.318Z,14.01
2022-12-31T07:26:36.814Z,14.04
2022-12-31T07:29:12.019Z,14.00
2022-12-31T07:31:50.521Z,14.03
2022-12-31T07:34:32.027Z,14.01
2022-12-31T07:36:58.656Z,14.04
2022-12-31T07:39:37.452Z,14.02
2022-12-31T07:42:22.153Z,14.02
2022-12-31T07:44:56.390Z,14.00
2022-12-31T07:47:25.700Z,13.93
2022-12-31T07:49:53.201Z,13.92
2022-12-31T07:52:20.708Z,13.84
2022-12-31T07:54:47.848Z,13.82
2022-12-31T07:57:17.347Z,13.79
2022-12-31T07:59:50.143Z,13.72
2022-12-31T08:02:25.809Z,13.70
2022-12-31T08:05:18.510Z,13.67
2022-12-31T08:08:12.377Z,13.61
2022-12-31T08:10:44.840Z,13.57
2022-12-31T08:13:12.547Z,13.53
2022-12-31T08:15:40.697Z,13.54
2022-12-31T08:18:08.399Z,13.52
2022-12-31T08:20:46.186Z,13.52
2022-12-31T08:23:36.726Z,13.55
2022-12-31T08:26:52.615Z,13.60
2022-12-31T08:29:40.053Z,13.60
2022-12-31T08:32:46.318Z,13.62
2022-12-31T08:35:20.660Z,13.62
2022-12-31T08:37:57.507Z,13.63
2022-12-31T08:40:38.365Z,13.67
2022-12-31T08:43:38.877Z,13.64
2022-12-31T08:46:13.022Z,13.64
2022-12-31T08:48:42.305Z,13.68
2022-12-31T08:51:21.537Z,13.72
2022-12-31T08:53:48.607Z,13.70
2022-12-31T08:56:50.181Z,13.77
2022-12-31T08:59:35.701Z,13.81
2022-12-31T09:02:29.859Z,13.84
2022-12-31T09:05:17.909Z,13.91
2022-12-31T09:08:10.513Z,13.95
2022-12-31T09:10:55.721Z,14.00
2022-12-31T09:13:32.253Z,14.02
2022-12-31T09:16:12.983Z,14.07
2022-12-31T09:18:42.269Z,14.05
2022-12-31T09:21:12.456Z,14.13
2022-12-31T09:23:40.038Z,14.15
2022-12-31T09:26:15.724Z,14.17
2022-12-31T09:29:05.475Z,14.15
2022-12-31T09:31:46.018Z,14.22
2022-12-31T09:34:22.523Z,14.20
2022-12-31T09:36:56.822Z,14.23
2022-12-31T09:39:41.101Z,14.27
2022-12-31T09:42:16.409Z,14.28
2022-12-31T09:45:03.055Z,14.32
2022-12-31T09:47:57.196Z,14.36
2022-12-31T09:50:52.796Z,14.39
2022-12-31T09:53:27.027Z,14.44
2022-12-31T09:56:04.356Z,14.52
2022-12-31T09:58:51.086Z,14.53
2022-12-31T10:01:36.069Z,14.66
2022-12-31T10:04:29.271Z,14.70
2022-12-31T10:07:09.652Z,14.78
2022-12-31T10:09:52.206Z,14.79
2022-12-31T10:12:34.613Z,14.98
2022-12-31T10:15:19.737Z,15.05
2022-12-31T10:17:58.836Z,15.00
2022-12-31T10:20:50.294Z,15.17
2022-12-31T10:23:52.377Z,15.29
2022-12-31T10:26:57.456Z,15.37
2022-12-31T10:29:50.225Z,15.50
2022-12-31T10:32:31.154Z,15.55
2022-12-31T10:35:12.821Z,15.58
2022-12-31T10:38:02.993Z,15.60
2022-12-31T10:40:29.586Z,15.61
2022-12-31T10:43:33.932Z,15.65
2022-12-31T10:46:23.251Z,15.66
2022-12-31T10:48:58.917Z,15.67
2022-12-31T10:52:02.325Z,15.65
2022-12-31T10:54:55.644Z,15.73
2022-12-31T10:57:46.210Z,15.74
2022-12-31T11:00:12.886Z,15.79
2022-12-31T11:03:00.539Z,15.81
2022-12-31T11:06:08.455Z,15.81
2022-12-31T11:08:53.795Z,15.82
2022-12-31T11:11:43.035Z,15.82
2022-12-31T11:14:20.398Z,15.80
2022-12-31T11:17:24.333Z,15.82
2022-12-31T11:20:10.198Z,15.81
2022-12-31T11:22:54.296Z,15.84
2022-12-31T11:25:22.984Z,15.84
2022-12-31T11:28:17.491Z,15.84
2022-12-31T11:31:15.797Z,15.82
2022-12-31T11:33:50.627Z,15.82
2022-12-31T11:36:36.244Z,15.81
2022-12-31T11:39:35.540Z,15.80
2022-12-31T11:42:14.471Z,15.79
2022-12-31T11:45:04.037Z,15.78
2022-12-31T11:48:03.989Z,15.78
2022-12-31T11:50:40.238Z,15.78
2022-12-31T11:53:16.858Z,15.79
2022-12-31T11:56:11.432Z,15.81
2022-12-31T11:58:38.759Z,15.81
2022-12-31T12:01:17.855Z,15.81
2022-12-31T12:03:45.355Z,15.85
2022-12-31T12:06:14.869Z,15.82
2022-12-31T12:08:42.694Z,15.86
2022-12-31T12:11:28.020Z,15.94
2022-12-31T12:13:54.683Z,15.95
2022-12-31T12:16:23.558Z,15.99
2022-12-31T12:19:02.043Z,16.01
2022-12-31T12:21:28.985Z,16.02
2022-12-31T12:24:04.675Z,16.03
2022-12-31T12:26:43.228Z,16.08
2022-12-31T12:29:21.560Z,16.09
2022-12-31T12:31:58.309Z,16.11
2022-12-31T12:34:36.526Z,16.13
2022-12-31T12:37:04.228Z,16.15
2022-12-31T12:39:33.789Z,16.17
2022-12-31T12:42:01.025Z,16.20
2022-12-31T12:44:27.653Z,16.20
2022-12-31T12:46:55.594Z,16.23
2022-12-31T12:49:32.349Z,16.29
2022-12-31T12:52:23.733Z,16.31
2022-12-31T12:54:59.384Z,16.32
2022-12-31T12:57:48.840Z,16.32
2022-12-31T13:00:20.462Z,16.38
2022-12-31T13:03:00.655Z,16.40
2022-12-31T13:05:37.500Z,16.38
2022-12-31T13:08:22.727Z,16.45
2022-12-31T13:11:15.508Z,16.45
2022-12-31T13:13:57.461Z,16.47
2022-12-31T13:16:48.560Z,16.49
2022-12-31T13:19:41.975Z,16.52
2022-12-31T13:22:19.755Z,16.51
2022-12-31T13:24:55.647Z,16.53
2022-12-31T13:27:33.172Z,16.53
2022-12-31T13:30:02.751Z,16.54
2022-12-31T13:32:43.152Z,16.50
2022-12-31T13:35:23.603Z,16.51
2022-12-31T13:37:53.583Z,16.50
2022-12-31T13:40:27.693Z,16.49
2022-12-31T13:43:00.505Z,16.48
2022-12-31T13:45:34.411Z,16.46
2022-12-31T13:48:08.292Z,16.46
2022-12-31T13:50:51.867Z,16.45
2022-12-31T13:53:52.626Z,16.40
2022-12-31T13:56:27.325Z,16.36
2022-12-31T13:59:01.648Z,16.33
2022-12-31T14:01:37.843Z,16.32
2022-12-31T14:04:12.842Z,16.29
2022-12-31T14:07:00.165Z,16.27
2022-12-31T14:09:30.606Z,16.25
2022-12-31T14:12:34.768Z,16.26
2022-12-31T14:15:29.069Z,16.22
2022-12-31T14:18:01.721Z,16.18
2022-12-31T14:20:32.638Z,16.16
2022-12-31T14:23:26.096Z,16.11
2022-12-31T14:25:55.366Z,16.05
2022-12-31T14:28:30.404Z,16.04
2022-12-31T14:31:22.790Z,15.90
2022-12-31T14:34:07.923Z,15.89
2022-12-31T14:37:00.064Z,15.84
2022-12-31T14:39:59.284Z,15.78
2022-12-31T14:42:51.019Z,15.66
2022-12-31T14:45:31.005Z,15.57
2022-12-31T14:48:45.148Z,15.56
2022-12-31T14:51:13.113Z,15.54
2022-12-31T14:53:54.389Z,15.55
2022-12-31T14:56:45.285Z,15.52
2022-12-31T14:59:30.839Z,15.48
2022-12-31T15:01:59.166Z,15.46
2022-12-31T15:04:32.072Z,15.43
2022-12-31T15:07:34.300Z,15.30
2022-12-31T15:10:15.320Z,15.20
2022-12-31T15:13:13.044Z,15.13
2022-12-31T15:15:56.914Z,15.07
2022-12-31T15:18:42.892Z,14.98
2022-12-31T15:21:14.919Z,14.85
2022-12-31T15:23:43.863Z,14.80
2022-12-31T15:26:22.819Z,14.78
2022-12-31T15:28:59.647Z,14.74
2022-12-31T15:31:27.312Z,14.71
2022-12-31T15:33:53.929Z,14.63
2022-12-31T15:36:23.542Z,14.47
2022-12-31T15:38:51.138Z,14.42
2022-12-31T15:41:18.940Z,14.37
2022-12-31T15:43:51.707Z,14.26
2022-12-31T15:46:25.598Z,14.21
2022-12-31T15:49:04.182Z,14.11
2022-12-31T15:51:43.827Z,14.05
2022-12-31T15:54:24.769Z,14.00
2022-12-31T15:56:53.170Z,13.95
2022-12-31T15:59:21.577Z,13.92
2022-12-31T16:01:48.745Z,13.78
2022-12-31T16:04:24.273Z,13.76
2022-12-31T16:06:52.416Z,13.72
2022-12-31T16:09:29.028Z,13.73
2022-12-31T16:11:57.843Z,13.66
2022-12-31T16:14:33.317Z,13.57
2022-12-31T16:17:01.096Z,13.46
2022-12-31T16:19:35.011Z,13.40
2022-12-31T16:22:08.370Z,13.29
2022-12-31T16:24:48.941Z,13.06
2022-12-31T16:27:24.112Z,13.19
2022-12-31T16:29:58.670Z,13.15
2022-12-31T16:32:25.323Z,13.08
2022-12-31T16:34:54.845Z,13.05
2022-12-31T16:37:23.612Z,13.03
2022-12-31T16:39:56.292Z,13.01
2022-12-31T16:42:28.058Z,12.95
2022-12-31T16:44:57.328Z,12.90
2022-12-31T16:47:34.892Z,12.77
2022-12-31T16:50:04.596Z,12.74
2022-12-31T16:52:38.907Z,12.66
2022-12-31T16:55:15.061Z,12.60
2022-12-31T16:57:44.194Z,12.57
2022-12-31T17:00:18.015Z,12.56
2022-12-31T17:02:50.675Z,12.48
2022-12-31T17:05:26.611Z,12.34
2022-12-31T17:07:53.854Z,12.33
2022-12-31T17:10:22.651Z,12.31
2022-12-31T17:13:28.317Z,12.22
2022-12-31T17:15:45.489Z,12.20
2022-12-31T17:18:20.259Z,12.22
2022-12-31T17:20:48.824Z,12.19
2022-12-31T17:23:31.804Z,12.21
2022-12-31T17:26:01.103Z,12.05
2022-12-31T17:28:33.028Z,12.16
2022-12-31T17:31:48.760Z,12.12
2022-12-31T17:34:15.394Z,12.10
2022-12-31T17:36:57.456Z,12.08
2022-12-31T17:39:25.351Z,12.06
2022-12-31T17:41:56.355Z,12.00
2022-12-31T17:44:28.423Z,11.98
2022-12-31T17:46:55.337Z,11.90
2022-12-31T17:49:30.790Z,11.86
2022-12-31T17:51:57.663Z,11.84
2022-12-31T17:54:24.324Z,11.75
2022-12-31T17:56:52.593Z,11.70
2022-12-31T17:59:25.244Z,11.72
2022-12-31T18:01:52.220Z,11.70
2022-12-31T18:04:20.854Z,11.65
2022-12-31T18:06:47.475Z,11.61
2022-12-31T18:09:15.966Z,11.54
2022-12-31T18:11:42.898Z,11.54
2022-12-31T18:14:14.010Z,11.43
2022-12-31T18:16:40.855Z,11.35
2022-12-31T18:19:37.934Z,11.42
2022-12-31T18:22:02.204Z,11.39
2022-12-31T18:24:28.821Z,11.40
2022-12-31T18:26:55.595Z,11.30
2022-12-31T18:29:22.750Z,11.32
2022-12-31T18:31:50.769Z,11.27
2022-12-31T18:34:18.744Z,11.28
2022-12-31T18:36:46.104Z,11.27
2022-12-31T18:39:13.218Z,11.21
2022-12-31T18:41:49.459Z,11.13
2022-12-31T18:44:16.677Z,11.12
2022-12-31T18:46:43.481Z,11.12
2022-12-31T18:49:10.184Z,11.12
2022-12-31T18:51:36.970Z,11.05
2022-12-31T18:54:04.893Z,11.02
2022-12-31T18:56:31.703Z,11.01
2022-12-31T18:58:59.823Z,11.06
2022-12-31T19:01:29.672Z,11.06
2022-12-31T19:04:02.804Z,10.97
2022-12-31T19:06:29.979Z,10.97
2022-12-31T19:08:56.799Z,10.97
2022-12-31T19:11:24.041Z,10.94
2022-12-31T19:13:50.801Z,10.82
2022-12-31T19:16:18.067Z,10.67
2022-12-31T19:18:45.186Z,10.82
2022-12-31T19:21:18.638Z,10.83
2022-12-31T19:23:45.760Z,10.79
2022-12-31T19:26:18.748Z,10.88
2022-12-31T19:28:46.731Z,10.91
2022-12-31T19:31:14.032Z,10.92
2022-12-31T19:33:41.037Z,10.95
2022-12-31T19:36:14.477Z,10.96
2022-12-31T19:38:41.156Z,10.97
2022-12-31T19:41:15.138Z,10.99
2022-12-31T19:43:41.880Z,10.99
2022-12-31T19:46:13.570Z,10.99
2022-12-31T19:48:40.513Z,11.01
2022-12-31T19:51:11.985Z,11.00
2022-12-31T19:53:44.557Z,11.01
2022-12-31T19:56:14.046Z,10.96
2022-12-31T19:58:40.841Z,10.92
2022-12-31T20:01:09.427Z,10.88
2022-12-31T20:03:36.225Z,10.85
2022-12-31T20:06:10.687Z,10.80
2022-12-31T20:08:39.454Z,10.75
2022-12-31T20:11:18.683Z,10.72
2022-12-31T20:13:47.287Z,10.66
2022-12-31T20:16:17.240Z,10.58
2022-12-31T20:18:45.812Z,10.59
2022-12-31T20:21:28.814Z,10.64
2022-12-31T20:23:55.865Z,10.62
2022-12-31T20:26:24.310Z,10.58
2022-12-31T20:28:51.148Z,10.61
2022-12-31T20:31:20.459Z,10.55
2022-12-31T20:33:47.189Z,10.55
2022-12-31T20:36:15.981Z,10.55
2022-12-31T20:38:42.641Z,10.54
2022-12-31T20:41:12.941Z,10.52
2022-12-31T20:43:40.039Z,10.49
2022-12-31T20:46:16.239Z,10.46
2022-12-31T20:48:44.198Z,10.42
2022-12-31T20:51:11.633Z,10.38
2022-12-31T20:53:48.408Z,10.33
2022-12-31T20:56:15.784Z,10.28
2022-12-31T20:58:42.611Z,10.26
2022-12-31T21:01:10.431Z,10.20
2022-12-31T21:06:27.455Z,10.16
2022-12-31T21:08:55.867Z,10.12
2022-12-31T21:11:48.819Z,10.07
2022-12-31T21:14:15.551Z,9.98
2022-12-31T21:16:42.248Z,9.95
2022-12-31T21:19:10.112Z,9.94
2022-12-31T21:21:36.838Z,9.89
2022-12-31T21:24:03.883Z,9.83
2022-12-31T21:26:30.806Z,9.79
2022-12-31T21:28:57.563Z,9.73
2022-12-31T21:31:24.286Z,9.64
2022-12-31T21:33:51.022Z,9.59
2022-12-31T21:36:17.831Z,9.61
2022-12-31T21:38:45.028Z,9.60
2022-12-31T21:41:34.038Z,9.57
2022-12-31T21:44:02.298Z,9.56
2022-12-31T21:46:29.403Z,9.58
2022-12-31T21:49:00.431Z,9.63
2022-12-31T21:51:28.013Z,9.64
2022-12-31T21:53:55.114Z,9.63
2022-12-31T21:56:22.646Z,9.68
2022-12-31T21:59:13.689Z,9.66
2022-12-31T22:01:59.128Z,9.65
2022-12-31T22:07:12.796Z,9.65
2022-12-31T22:09:39.484Z,9.63
2022-12-31T22:12:06.339Z,9.66
2022-12-31T22:14:32.939Z,9.63
2022-12-31T22:16:59.557Z,9.62
2022-12-31T22:19:26.244Z,9.61
2022-12-31T22:21:52.873Z,9.55
2022-12-31T22:24:19.503Z,9.57
2022-12-31T22:26:46.961Z,9.52
2022-12-31T22:29:13.772Z,9.51
2022-12-31T22:31:40.405Z,9.50
2022-12-31T22:34:07.121Z,9.47
2022-12-31T22:36:33.730Z,9.49
2022-12-31T22:39:00.351Z,9.45
2022-12-31T22:41:28.159Z,9.43
2022-12-31T22:44:03.176Z,9.46
2022-12-31T22:46:31.489Z,9.43
2022-12-31T22:48:59.695Z,9.44
2022-12-31T22:51:57.073Z,9.36
2022-12-31T22:54:14.005Z,9.34
2022-12-31T22:56:40.967Z,9.32
2022-12-31T22:59:07.621Z,9.36
2022-12-31T23:01:34.653Z,9.36
2022-12-31T23:04:01.521Z,9.34
2022-12-31T23:06:29.161Z,9.35
2022-12-31T23:09:14.709Z,9.30
2022-12-31T23:11:43.214Z,9.32
2022-12-31T23:14:33.893Z,9.31
2022-12-31T23:17:30.504Z,9.25
2022-12-31T23:20:18.594Z,9.18
2022-12-31T23:23:04.865Z,9.16
2022-12-31T23:25:37.767Z,9.20
2022-12-31T23:28:06.079Z,9.13
2022-12-31T23:30:33.007Z,9.18
2022-12-31T23:32:59.962Z,9.17
2022-12-31T23:35:26.601Z,9.20
2022-12-31T23:37:53.265Z,9.20
2022-12-31T23:40:21.841Z,9.20
2022-12-31T23:42:50.064Z,9.20
2022-12-31T23:45:16.736Z,9.21
2022-12-31T23:47:43.424Z,9.02
2022-12-31T23:50:10.253Z,9.13
2022-12-31T23:52:36.865Z,9.20
2022-12-31T23:55:03.854Z,9.18
2022-12-31T23:57:30.662Z,9.18
2022-12-31T23:59:57.371Z,9.16
